createdAt,value
2017-08-08T00:01:51.871Z,98534.38
2017-08-08T00:04:21.306Z,98533.02
2017-08-08T00:06:50.817Z,98525.98
2017-08-08T00:09:20.274Z,98526.40
2017-08-08T00:11:49.706Z,98523.05
2017-08-08T00:14:19.157Z,98515.16
2017-08-08T00:16:48.444Z,98511.75
2017-08-08T00:19:17.888Z,98511.35
2017-08-08T00:21:47.379Z,98512.95
2017-08-08T00:24:16.841Z,98513.32
2017-08-08T00:26:46.332Z,98514.09
2017-08-08T00:29:15.773Z,98510.97
2017-08-08T00:31:45.212Z,98510.75
2017-08-08T00:34:14.656Z,98504.48
2017-08-08T00:36:44.093Z,98511.66
2017-08-08T00:39:13.573Z,98500.55
2017-08-08T00:41:43.007Z,98504.78
2017-08-08T00:44:12.481Z,98498.44
2017-08-08T00:46:41.944Z,98501.66
2017-08-08T00:49:11.577Z,98494.85
2017-08-08T00:51:41.092Z,98496.36
2017-08-08T00:54:10.536Z,98495.05
2017-08-08T00:56:39.984Z,98495.90
2017-08-08T00:59:09.421Z,98490.23
2017-08-08T01:01:38.932Z,98486.02
2017-08-08T01:04:08.378Z,98481.71
2017-08-08T01:06:37.633Z,98482.44
2017-08-08T01:09:07.078Z,98484.39
2017-08-08T01:11:36.537Z,98475.77
2017-08-08T01:14:05.969Z,98476.91
2017-08-08T01:16:35.412Z,98470.55
2017-08-08T01:19:05.032Z,98472.49
2017-08-08T01:21:34.488Z,98473.54
2017-08-08T01:24:03.936Z,98472.09
2017-08-08T01:26:33.389Z,98470.33
2017-08-08T01:29:02.873Z,98470.09
2017-08-08T01:31:32.300Z,98464.97
2017-08-08T01:34:01.740Z,98470.81
2017-08-08T01:36:31.210Z,98462.97
2017-08-08T01:39:00.688Z,98462.11
2017-08-08T01:41:29.970Z,98457.53
2017-08-08T01:43:59.405Z,98456.45
2017-08-08T01:46:28.514Z,98458.25
2017-08-08T01:48:57.953Z,98459.20
2017-08-08T01:51:27.047Z,98463.65
2017-08-08T01:53:56.482Z,98463.69
2017-08-08T01:56:25.937Z,98462.84
2017-08-08T01:58:55.412Z,98464.73
2017-08-08T02:01:24.852Z,98459.20
2017-08-08T02:03:54.309Z,98457.47
2017-08-08T02:06:23.753Z,98456.53
2017-08-08T02:08:53.196Z,98453.88
2017-08-08T02:11:22.296Z,98451.20
2017-08-08T02:13:51.562Z,98448.13
2017-08-08T02:16:21.008Z,98441.13
2017-08-08T02:18:50.455Z,98436.28
2017-08-08T02:21:19.929Z,98438.34
2017-08-08T02:23:49.380Z,98429.29
2017-08-08T02:26:18.837Z,98424.16
2017-08-08T02:28:48.274Z,98417.27
2017-08-08T02:31:17.713Z,98421.52
2017-08-08T02:33:47.189Z,98421.66
2017-08-08T02:36:16.427Z,98417.08
2017-08-08T02:38:45.886Z,98416.29
2017-08-08T02:41:15.613Z,98410.19
2017-08-08T02:43:45.066Z,98410.05
2017-08-08T02:46:14.780Z,98405.97
2017-08-08T02:48:44.233Z,98413.20
2017-08-08T02:51:13.678Z,98410.38
2017-08-08T02:53:44.038Z,98414.48
2017-08-08T02:56:13.748Z,98411.53
2017-08-08T02:58:43.472Z,98409.12
2017-08-08T03:01:12.941Z,98405.66
2017-08-08T03:03:42.377Z,98407.04
2017-08-08T03:06:11.825Z,98402.59
2017-08-08T03:08:41.555Z,98406.55
2017-08-08T03:11:11.304Z,98415.27
2017-08-08T03:13:40.777Z,98410.81
2017-08-08T03:16:10.515Z,98404.47
2017-08-08T03:18:40.249Z,98402.16
2017-08-08T03:21:10.016Z,98406.39
2017-08-08T03:23:39.746Z,98405.73
2017-08-08T03:26:09.180Z,98401.16
2017-08-08T03:28:38.925Z,98403.19
2017-08-08T03:31:08.651Z,98405.38
2017-08-08T03:33:38.395Z,98404.97
2017-08-08T03:36:08.132Z,98405.92
2017-08-08T03:38:37.899Z,98408.80
2017-08-08T03:41:07.628Z,98403.09
2017-08-08T03:43:37.085Z,98404.91
2017-08-08T03:46:06.808Z,98400.56
2017-08-08T03:48:36.530Z,98391.34
2017-08-08T03:51:06.325Z,98396.77
2017-08-08T03:53:35.860Z,98395.28
2017-08-08T03:56:05.603Z,98397.47
2017-08-08T03:58:35.321Z,98389.88
2017-08-08T04:01:05.039Z,98394.47
2017-08-08T04:03:34.784Z,98392.84
2017-08-08T04:06:04.508Z,98395.01
2017-08-08T04:08:34.238Z,98402.88
2017-08-08T04:11:03.984Z,98401.65
2017-08-08T04:13:33.701Z,98399.89
2017-08-08T04:16:03.435Z,98395.00
2017-08-08T04:18:33.169Z,98401.52
2017-08-08T04:21:02.885Z,98399.48
2017-08-08T04:23:32.626Z,98396.77
2017-08-08T04:26:02.376Z,98391.05
2017-08-08T04:28:32.102Z,98396.75
2017-08-08T04:31:01.825Z,98400.55
2017-08-08T04:33:31.544Z,98399.68
2017-08-08T04:36:01.276Z,98395.62
2017-08-08T04:38:31.014Z,98395.02
2017-08-08T04:41:00.737Z,98392.25
2017-08-08T04:43:30.484Z,98387.72
2017-08-08T04:46:00.223Z,98387.06
2017-08-08T04:48:29.661Z,98388.09
2017-08-08T04:50:59.393Z,98381.37
2017-08-08T04:53:28.848Z,98383.30
2017-08-08T04:55:58.293Z,98377.22
2017-08-08T04:58:27.815Z,98383.38
2017-08-08T05:00:57.266Z,98379.56
2017-08-08T05:03:26.961Z,98375.08
2017-08-08T05:05:56.700Z,98373.59
2017-08-08T05:08:26.153Z,98371.05
2017-08-08T05:10:55.594Z,98366.28
2017-08-08T05:13:25.060Z,98367.63
2017-08-08T05:15:54.503Z,98369.47
2017-08-08T05:18:23.940Z,98368.09
2017-08-08T05:20:53.382Z,98368.59
2017-08-08T05:23:22.833Z,98359.80
2017-08-08T05:25:52.292Z,98360.09
2017-08-08T05:28:21.720Z,98356.30
2017-08-08T05:30:51.166Z,98349.28
2017-08-08T05:33:20.607Z,98348.42
2017-08-08T05:35:50.067Z,98349.28
2017-08-08T05:38:19.517Z,98344.00
2017-08-08T05:40:48.953Z,98343.84
2017-08-08T05:43:18.404Z,98340.45
2017-08-08T05:45:47.910Z,98335.85
2017-08-08T05:48:17.340Z,98341.27
2017-08-08T05:50:46.798Z,98346.06
2017-08-08T05:53:16.259Z,98349.69
2017-08-08T05:55:45.690Z,98350.95
2017-08-08T05:58:15.139Z,98358.66
2017-08-08T06:00:44.602Z,98352.67
2017-08-08T06:03:13.865Z,98355.83
2017-08-08T06:05:43.325Z,98353.28
2017-08-08T06:08:12.789Z,98357.36
2017-08-08T06:10:42.268Z,98349.53
2017-08-08T06:13:11.684Z,98353.77
2017-08-08T06:15:41.164Z,98350.03
2017-08-08T06:18:10.606Z,98341.55
2017-08-08T06:20:40.049Z,98339.64
2017-08-08T06:23:09.365Z,98337.40
2017-08-08T06:25:38.783Z,98338.42
2017-08-08T06:28:10.413Z,98336.98
2017-08-08T06:30:40.247Z,98348.52
2017-08-08T06:33:09.948Z,98342.30
2017-08-08T06:35:39.402Z,98351.91
2017-08-08T06:38:08.855Z,98336.59
2017-08-08T06:40:38.320Z,98340.66
2017-08-08T06:43:07.772Z,98339.54
2017-08-08T06:45:37.213Z,98336.17
2017-08-08T06:48:06.778Z,98335.49
2017-08-08T06:50:36.223Z,98333.05
2017-08-08T06:53:05.661Z,98326.06
2017-08-08T06:55:35.112Z,98328.44
2017-08-08T06:58:04.593Z,98320.83
2017-08-08T07:00:34.057Z,98318.73
2017-08-08T07:03:03.501Z,98321.63
2017-08-08T07:05:34.609Z,98332.38
2017-08-08T07:08:04.056Z,98323.19
2017-08-08T07:10:33.493Z,98320.42
2017-08-08T07:13:03.088Z,98324.30
2017-08-08T07:15:32.869Z,98328.20
2017-08-08T07:18:02.294Z,98316.89
2017-08-08T07:20:31.725Z,98312.92
2017-08-08T07:23:01.214Z,98316.09
2017-08-08T07:25:30.660Z,98321.19
2017-08-08T07:28:00.110Z,98324.48
2017-08-08T07:30:29.632Z,98327.77
2017-08-08T07:32:59.113Z,98332.42
2017-08-08T07:35:29.465Z,98334.34
2017-08-08T07:37:59.150Z,98332.75
2017-08-08T07:40:28.665Z,98334.77
2017-08-08T07:42:58.269Z,98335.23
2017-08-08T07:45:29.126Z,98336.80
2017-08-08T07:47:58.912Z,98348.00
2017-08-08T07:50:28.385Z,98343.98
2017-08-08T07:52:57.940Z,98338.20
2017-08-08T07:55:27.462Z,98336.25
2017-08-08T07:57:57.128Z,98341.12
2017-08-08T08:00:26.666Z,98329.91
2017-08-08T08:02:56.169Z,98330.80
2017-08-08T08:05:25.662Z,98331.86
2017-08-08T08:07:55.106Z,98330.36
2017-08-08T08:10:24.595Z,98328.49
2017-08-08T08:12:54.132Z,98337.78
2017-08-08T08:15:23.641Z,98327.16
2017-08-08T08:17:53.117Z,98322.08
2017-08-08T08:20:22.683Z,98323.42
2017-08-08T08:22:52.142Z,98312.45
2017-08-08T08:25:21.652Z,98316.35
2017-08-08T08:27:51.102Z,98313.15
2017-08-08T08:30:20.579Z,98307.42
2017-08-08T08:32:50.026Z,98305.62
2017-08-08T08:35:19.511Z,98301.41
2017-08-08T08:37:48.964Z,98293.41
2017-08-08T08:40:18.455Z,98286.44
2017-08-08T08:42:47.892Z,98285.98
2017-08-08T08:45:17.406Z,98278.32
2017-08-08T08:47:46.850Z,98284.88
2017-08-08T08:50:16.331Z,98281.22
2017-08-08T08:52:45.782Z,98284.00
2017-08-08T08:55:15.275Z,98275.93
2017-08-08T08:57:44.713Z,98270.98
2017-08-08T09:00:14.208Z,98261.64
2017-08-08T09:02:43.657Z,98259.20
2017-08-08T09:05:13.151Z,98255.08
2017-08-08T09:07:42.580Z,98256.11
2017-08-08T09:10:12.131Z,98258.73
2017-08-08T09:12:41.569Z,98261.48
2017-08-08T09:15:11.048Z,98257.30
2017-08-08T09:17:40.495Z,98254.14
2017-08-08T09:20:10.650Z,98254.98
2017-08-08T09:22:39.765Z,98260.54
2017-08-08T09:25:09.243Z,98256.70
2017-08-08T09:27:38.676Z,98263.16
2017-08-08T09:30:08.153Z,98262.35
2017-08-08T09:32:37.594Z,98261.56
2017-08-08T09:35:07.109Z,98256.48
2017-08-08T09:37:36.545Z,98241.63
2017-08-08T09:40:06.055Z,98239.84
2017-08-08T09:42:35.489Z,98230.70
2017-08-08T09:45:04.985Z,98232.47
2017-08-08T09:47:34.429Z,98227.30
2017-08-08T09:50:03.936Z,98229.41
2017-08-08T09:52:33.382Z,98226.91
2017-08-08T09:55:02.873Z,98227.58
2017-08-08T09:57:32.329Z,98231.83
2017-08-08T10:00:01.778Z,98228.80
2017-08-08T10:02:31.058Z,98224.25
2017-08-08T10:05:00.520Z,98221.39
2017-08-08T10:07:29.944Z,98213.18
2017-08-08T10:09:59.419Z,98209.73
2017-08-08T10:12:28.878Z,98206.28
2017-08-08T10:14:58.336Z,98212.36
2017-08-08T10:17:28.065Z,98206.30
2017-08-08T10:19:57.522Z,98202.01
2017-08-08T10:22:26.959Z,98194.98
2017-08-08T10:24:57.076Z,98193.42
2017-08-08T10:27:26.530Z,98193.44
2017-08-08T10:29:55.955Z,98186.96
2017-08-08T10:32:25.469Z,98183.77
2017-08-08T10:34:54.911Z,98178.28
2017-08-08T10:37:24.415Z,98176.33
2017-08-08T10:39:53.857Z,98178.58
2017-08-08T10:42:23.298Z,98182.01
2017-08-08T10:44:52.744Z,98184.58
2017-08-08T10:47:22.281Z,98175.45
2017-08-08T10:49:51.732Z,98175.70
2017-08-08T10:52:21.160Z,98176.17
2017-08-08T10:54:50.617Z,98162.91
2017-08-08T10:57:20.065Z,98152.91
2017-08-08T10:59:49.496Z,98149.22
2017-08-08T11:02:18.948Z,98142.20
2017-08-08T11:04:48.380Z,98144.44
2017-08-08T11:07:17.832Z,98149.44
2017-08-08T11:09:47.296Z,98150.24
2017-08-08T11:12:16.733Z,98150.66
2017-08-08T11:14:46.169Z,98154.84
2017-08-08T11:17:15.631Z,98158.23
2017-08-08T11:19:45.061Z,98156.45
2017-08-08T11:22:14.585Z,98153.06
2017-08-08T11:24:44.029Z,98156.85
2017-08-08T11:27:13.476Z,98150.89
2017-08-08T11:29:42.922Z,98141.95
2017-08-08T11:32:12.406Z,98124.84
2017-08-08T11:34:41.837Z,98127.42
2017-08-08T11:37:11.285Z,98131.45
2017-08-08T11:39:40.743Z,98127.08
2017-08-08T11:42:10.170Z,98121.30
2017-08-08T11:44:39.601Z,98116.53
2017-08-08T11:47:09.048Z,98118.31
2017-08-08T11:49:38.497Z,98126.48
2017-08-08T11:52:07.958Z,98115.93
2017-08-08T11:54:37.400Z,98113.52
2017-08-08T11:57:06.839Z,98121.69
2017-08-08T11:59:36.277Z,98127.23
2017-08-08T12:02:05.731Z,98117.45
2017-08-08T12:04:35.176Z,98115.08
2017-08-08T12:07:04.639Z,98113.70
2017-08-08T12:09:33.740Z,98111.69
2017-08-08T12:12:03.170Z,98113.88
2017-08-08T12:14:32.636Z,98108.69
2017-08-08T12:17:02.069Z,98102.64
2017-08-08T12:19:31.516Z,98096.03
2017-08-08T12:22:00.969Z,98095.89
2017-08-08T12:24:30.404Z,98091.88
2017-08-08T12:26:59.886Z,98097.06
2017-08-08T12:29:29.312Z,98104.36
2017-08-08T12:31:58.805Z,98093.59
2017-08-08T12:34:28.263Z,98090.44
2017-08-08T12:36:57.707Z,98078.08
2017-08-08T12:39:27.162Z,98080.37
2017-08-08T12:41:56.600Z,98074.49
2017-08-08T12:44:26.042Z,98069.21
2017-08-08T12:46:55.496Z,98071.11
2017-08-08T12:49:24.927Z,98068.69
2017-08-08T12:51:54.362Z,98065.98
2017-08-08T12:54:23.830Z,98063.45
2017-08-08T12:56:53.275Z,98063.05
2017-08-08T12:59:22.721Z,98061.02
2017-08-08T13:01:52.184Z,98059.86
2017-08-08T13:04:21.634Z,98064.64
2017-08-08T13:06:51.078Z,98062.09
2017-08-08T13:09:20.529Z,98066.41
2017-08-08T13:11:49.986Z,98062.87
2017-08-08T13:14:19.426Z,98066.30
2017-08-08T13:16:49.042Z,98074.30
2017-08-08T13:19:18.488Z,98085.96
2017-08-08T13:21:47.949Z,98078.98
2017-08-08T13:24:17.389Z,98082.13
2017-08-08T13:26:46.845Z,98083.41
2017-08-08T13:29:16.286Z,98087.73
2017-08-08T13:31:45.741Z,98088.91
2017-08-08T13:34:15.250Z,98089.92
2017-08-08T13:36:44.685Z,98095.02
2017-08-08T13:39:14.137Z,98085.65
2017-08-08T13:41:43.578Z,98087.67
2017-08-08T13:44:13.012Z,98094.36
2017-08-08T13:46:42.460Z,98097.31
2017-08-08T13:49:11.901Z,98085.90
2017-08-08T13:51:41.336Z,98082.58
2017-08-08T13:54:10.791Z,98080.36
2017-08-08T13:56:40.265Z,98077.97
2017-08-08T13:59:09.717Z,98073.59
2017-08-08T14:01:39.159Z,98067.84
2017-08-08T14:04:08.620Z,98064.26
2017-08-08T14:06:38.043Z,98065.42
2017-08-08T14:09:07.486Z,98072.63
2017-08-08T14:11:36.945Z,98071.64
2017-08-08T14:14:06.401Z,98065.27
2017-08-08T14:16:35.857Z,98071.20
2017-08-08T14:19:05.322Z,98079.05
2017-08-08T14:21:34.759Z,98081.35
2017-08-08T14:24:04.238Z,98072.48
2017-08-08T14:26:33.664Z,98079.44
2017-08-08T14:29:03.140Z,98075.31
2017-08-08T14:31:32.609Z,98072.70
2017-08-08T14:34:02.055Z,98074.42
2017-08-08T14:36:31.536Z,98070.23
2017-08-08T14:39:00.998Z,98059.38
2017-08-08T14:41:30.437Z,98063.02
2017-08-08T14:43:59.908Z,98060.55
2017-08-08T14:46:29.174Z,98055.34
2017-08-08T14:48:58.642Z,98050.36
2017-08-08T14:51:28.085Z,98054.84
2017-08-08T14:53:57.561Z,98053.23
2017-08-08T14:56:26.986Z,98048.66
2017-08-08T14:58:56.446Z,98044.66
2017-08-08T15:01:25.925Z,98039.53
2017-08-08T15:03:55.182Z,98033.72
2017-08-08T15:06:24.634Z,98024.66
2017-08-08T15:08:54.158Z,98027.59
2017-08-08T15:11:23.637Z,98022.88
2017-08-08T15:13:53.088Z,98027.55
2017-08-08T15:16:22.535Z,98027.12
2017-08-08T15:18:51.978Z,98033.52
2017-08-08T15:21:21.443Z,98028.48
2017-08-08T15:23:50.875Z,98036.10
2017-08-08T15:26:20.349Z,98032.66
2017-08-08T15:28:49.851Z,98030.41
2017-08-08T15:31:19.312Z,98025.58
2017-08-08T15:33:48.775Z,98029.78
2017-08-08T15:36:18.208Z,98031.58
2017-08-08T15:38:47.465Z,98031.97
2017-08-08T15:41:16.700Z,98021.61
2017-08-08T15:43:45.945Z,98020.88
2017-08-08T15:46:15.409Z,98015.33
2017-08-08T15:48:44.661Z,98020.83
2017-08-08T15:51:14.089Z,98016.09
2017-08-08T15:53:43.531Z,98012.48
2017-08-08T15:56:12.981Z,98012.25
2017-08-08T15:58:42.220Z,98013.38
2017-08-08T16:01:11.465Z,98007.62
2017-08-08T16:03:40.910Z,98013.52
2017-08-08T16:06:10.353Z,98010.24
2017-08-08T16:08:39.634Z,98013.22
2017-08-08T16:11:09.068Z,98010.96
2017-08-08T16:13:38.508Z,98008.61
2017-08-08T16:16:07.961Z,98000.52
2017-08-08T16:18:37.424Z,98000.77
2017-08-08T16:21:06.665Z,98009.37
2017-08-08T16:23:36.124Z,98011.15
2017-08-08T16:26:05.601Z,98009.77
2017-08-08T16:28:34.838Z,98010.63
2017-08-08T16:31:04.304Z,98006.99
2017-08-08T16:33:33.725Z,98012.44
2017-08-08T16:36:02.972Z,98011.59
2017-08-08T16:38:32.430Z,98013.97
2017-08-08T16:41:01.893Z,98024.53
2017-08-08T16:43:31.356Z,98035.71
2017-08-08T16:46:00.809Z,98042.45
2017-08-08T16:48:30.252Z,98046.05
2017-08-08T16:50:59.748Z,98050.59
2017-08-08T16:53:29.204Z,98049.56
2017-08-08T16:55:58.660Z,98055.95
2017-08-08T16:58:28.136Z,98063.91
2017-08-08T17:00:57.577Z,98065.45
2017-08-08T17:03:27.012Z,98052.06
2017-08-08T17:05:56.257Z,98044.08
2017-08-08T17:08:25.557Z,98042.14
2017-08-08T17:10:54.996Z,98037.78
2017-08-08T17:13:24.435Z,98048.53
2017-08-08T17:15:54.772Z,98052.44
2017-08-08T17:18:24.228Z,98067.81
2017-08-08T17:20:53.694Z,98063.80
2017-08-08T17:23:23.145Z,98063.86
2017-08-08T17:25:52.591Z,98067.86
2017-08-08T17:28:22.042Z,98074.77
2017-08-08T17:30:51.489Z,98076.19
2017-08-08T17:33:20.959Z,98079.42
2017-08-08T17:35:50.397Z,98092.12
2017-08-08T17:38:19.841Z,98092.85
2017-08-08T17:40:49.273Z,98088.52
2017-08-08T17:43:18.755Z,98082.33
2017-08-08T17:45:48.193Z,98085.25
2017-08-08T17:48:17.654Z,98091.92
2017-08-08T17:50:47.100Z,98097.02
2017-08-08T17:53:16.567Z,98089.67
2017-08-08T17:55:46.059Z,98094.61
2017-08-08T17:58:16.065Z,98100.52
2017-08-08T18:00:45.497Z,98108.53
2017-08-08T18:03:14.961Z,98110.75
2017-08-08T18:05:44.431Z,98108.95
2017-08-08T18:08:13.900Z,98112.91
2017-08-08T18:10:43.333Z,98122.62
2017-08-08T18:13:12.801Z,98116.33
2017-08-08T18:15:42.231Z,98125.92
2017-08-08T18:18:11.660Z,98125.13
2017-08-08T18:20:41.113Z,98136.27
2017-08-08T18:23:10.565Z,98136.21
2017-08-08T18:25:40.025Z,98147.14
2017-08-08T18:28:09.526Z,98145.74
2017-08-08T18:30:38.986Z,98138.15
2017-08-08T18:33:08.437Z,98133.50
2017-08-08T18:35:37.894Z,98138.11
2017-08-08T18:38:07.334Z,98138.31
2017-08-08T18:40:36.817Z,98142.70
2017-08-08T18:43:06.370Z,98144.01
2017-08-08T18:45:35.832Z,98146.72
2017-08-08T18:48:05.311Z,98152.68
2017-08-08T18:50:34.788Z,98163.11
2017-08-08T18:53:05.201Z,98166.52
2017-08-08T18:55:34.644Z,98171.31
2017-08-08T18:58:04.104Z,98172.69
2017-08-08T19:00:33.575Z,98171.73
2017-08-08T19:03:03.040Z,98173.31
2017-08-08T19:05:32.509Z,98174.95
2017-08-08T19:08:01.961Z,98175.97
2017-08-08T19:10:31.428Z,98186.02
2017-08-08T19:13:00.885Z,98197.71
2017-08-08T19:15:30.348Z,98206.56
2017-08-08T19:17:59.822Z,98204.90
2017-08-08T19:20:29.274Z,98201.00
2017-08-08T19:22:58.717Z,98189.69
2017-08-08T19:25:28.160Z,98195.82
2017-08-08T19:27:57.613Z,98213.86
2017-08-08T19:30:27.077Z,98215.71
2017-08-08T19:32:56.517Z,98209.71
2017-08-08T19:35:25.985Z,98205.06
2017-08-08T19:37:55.416Z,98205.61
2017-08-08T19:40:24.899Z,98204.06
2017-08-08T19:42:54.342Z,98207.41
2017-08-08T19:45:23.921Z,98217.95
2017-08-08T19:47:53.346Z,98224.03
2017-08-08T19:50:22.861Z,98230.58
2017-08-08T19:52:52.302Z,98235.99
2017-08-08T19:55:21.822Z,98242.49
2017-08-08T19:57:51.245Z,98237.66
2017-08-08T20:00:20.740Z,98239.70
2017-08-08T20:02:50.019Z,98239.45
2017-08-08T20:05:19.550Z,98251.76
2017-08-08T20:07:49.008Z,98238.33
2017-08-08T20:10:18.651Z,98223.73
2017-08-08T20:12:48.102Z,98227.55
2017-08-08T20:15:17.597Z,98243.30
2017-08-08T20:17:47.089Z,98258.70
2017-08-08T20:20:16.658Z,98268.52
2017-08-08T20:22:46.100Z,98269.33
2017-08-08T20:25:15.658Z,98273.66
2017-08-08T20:27:45.105Z,98279.03
2017-08-08T20:30:14.600Z,98291.51
2017-08-08T20:32:44.051Z,98290.61
2017-08-08T20:35:13.548Z,98299.66
2017-08-08T20:37:42.992Z,98299.11
2017-08-08T20:40:12.530Z,98309.13
2017-08-08T20:42:41.980Z,98310.20
2017-08-08T20:45:11.455Z,98323.95
2017-08-08T20:47:40.923Z,98337.34
2017-08-08T20:50:10.429Z,98337.69
2017-08-08T20:52:39.974Z,98330.19
2017-08-08T20:55:09.441Z,98329.56
2017-08-08T20:57:38.921Z,98338.41
2017-08-08T21:00:08.420Z,98336.89
2017-08-08T21:02:37.878Z,98317.95
2017-08-08T21:05:08.018Z,98312.95
2017-08-08T21:07:37.477Z,98315.28
2017-08-08T21:10:06.958Z,98323.26
2017-08-08T21:12:36.410Z,98329.55
2017-08-08T21:15:05.914Z,98338.67
2017-08-08T21:17:35.351Z,98353.74
2017-08-08T21:20:04.907Z,98378.47
2017-08-08T21:22:34.492Z,98392.58
2017-08-08T21:25:03.790Z,98399.43
2017-08-08T21:27:33.242Z,98409.52
2017-08-08T21:30:02.753Z,98426.94
2017-08-08T21:32:32.189Z,98448.68
2017-08-08T21:35:01.688Z,98483.77
2017-08-08T21:37:31.128Z,98522.31
2017-08-08T21:40:01.296Z,98562.20
2017-08-08T21:42:30.828Z,98580.03
2017-08-08T21:45:00.354Z,98624.41
2017-08-08T21:47:29.793Z,98625.28
2017-08-08T21:49:59.228Z,98628.27
2017-08-08T21:52:28.673Z,98658.41
2017-08-08T21:54:58.157Z,98695.23
2017-08-08T21:57:27.613Z,98663.39
2017-08-08T21:59:57.058Z,98714.02
2017-08-08T22:02:26.517Z,98738.89
2017-08-08T22:04:56.013Z,98727.91
2017-08-08T22:07:25.453Z,98719.67
2017-08-08T22:09:54.897Z,98775.23
2017-08-08T22:12:24.405Z,98742.39
2017-08-08T22:14:53.844Z,98772.27
2017-08-08T22:17:23.305Z,98753.75
2017-08-08T22:19:52.772Z,98752.62
2017-08-08T22:22:22.215Z,98756.84
2017-08-08T22:24:51.663Z,98732.55
2017-08-08T22:27:21.122Z,98725.92
2017-08-08T22:29:50.640Z,98717.78
2017-08-08T22:32:20.077Z,98725.59
2017-08-08T22:34:49.519Z,98707.39
2017-08-08T22:37:18.993Z,98699.84
2017-08-08T22:39:48.442Z,98713.97
2017-08-08T22:42:17.881Z,98720.97
2017-08-08T22:44:47.327Z,98715.16
2017-08-08T22:47:16.773Z,98697.45
2017-08-08T22:49:46.229Z,98709.34
2017-08-08T22:52:15.701Z,98706.77
2017-08-08T22:54:45.153Z,98709.97
2017-08-08T22:57:14.607Z,98696.04
2017-08-08T22:59:44.064Z,98689.78
2017-08-08T23:02:13.528Z,98701.89
2017-08-08T23:04:42.984Z,98688.83
2017-08-08T23:07:12.260Z,98700.77
2017-08-08T23:09:41.721Z,98696.41
2017-08-08T23:12:11.165Z,98698.67
2017-08-08T23:14:40.607Z,98710.57
2017-08-08T23:17:10.064Z,98727.19
2017-08-08T23:19:39.564Z,98745.48
2017-08-08T23:22:09.038Z,98726.47
2017-08-08T23:24:38.323Z,98722.55
2017-08-08T23:27:07.775Z,98719.10
2017-08-08T23:29:37.236Z,98738.41
2017-08-08T23:32:06.675Z,98748.11
2017-08-08T23:34:36.122Z,98756.11
2017-08-08T23:37:05.508Z,98758.59
2017-08-08T23:39:34.961Z,98759.34
2017-08-08T23:42:04.413Z,98763.14
2017-08-08T23:44:33.853Z,98769.38
2017-08-08T23:47:03.292Z,98762.56
2017-08-08T23:49:32.745Z,98765.11
2017-08-08T23:52:02.324Z,98759.30
2017-08-08T23:54:31.757Z,98760.92
2017-08-08T23:57:01.205Z,98749.85
2017-08-08T23:59:30.649Z,98749.04
